sensor_id;sensor_type;location;lat;lon;timestamp;P1;durP1;ratioP1;P2;durP2;ratioP2
23376;SDS011;14353;46.070;13.222;2022-12-18T00:00:06;1.63;;;1.52;;
23376;SDS011;14353;46.070;13.222;2022-12-18T00:02:33;2.10;;;1.60;;
23376;SDS011;14353;46.070;13.222;2022-12-18T00:04:58;1.77;;;1.50;;
23376;SDS011;14353;46.070;13.222;2022-12-18T00:07:27;1.83;;;1.67;;
23376;SDS011;14353;46.070;13.222;2022-12-18T00:09:58;1.98;;;1.67;;
23376;SDS011;14353;46.070;13.222;2022-12-18T00:12:32;1.80;;;1.70;;
23376;SDS011;14353;46.070;13.222;2022-12-18T00:14:58;1.55;;;1.45;;
23376;SDS011;14353;46.070;13.222;2022-12-18T00:17:27;1.75;;;1.60;;
23376;SDS011;14353;46.070;13.222;2022-12-18T00:19:52;1.95;;;1.70;;
23376;SDS011;14353;46.070;13.222;2022-12-18T00:22:18;1.90;;;1.65;;
23376;SDS011;14353;46.070;13.222;2022-12-18T00:24:50;1.75;;;1.65;;
23376;SDS011;14353;46.070;13.222;2022-12-18T00:27:15;1.73;;;1.63;;
23376;SDS011;14353;46.070;13.222;2022-12-18T00:29:41;1.70;;;1.60;;
23376;SDS011;14353;46.070;13.222;2022-12-18T00:32:07;1.77;;;1.65;;
23376;SDS011;14353;46.070;13.222;2022-12-18T00:34:36;2.08;;;1.70;;
23376;SDS011;14353;46.070;13.222;2022-12-18T00:37:04;2.22;;;1.73;;
23376;SDS011;14353;46.070;13.222;2022-12-18T00:39:33;1.95;;;1.70;;
23376;SDS011;14353;46.070;13.222;2022-12-18T00:41:58;1.52;;;1.42;;
23376;SDS011;14353;46.070;13.222;2022-12-18T00:44:43;2.00;;;1.73;;
23376;SDS011;14353;46.070;13.222;2022-12-18T00:47:09;1.95;;;1.75;;
23376;SDS011;14353;46.070;13.222;2022-12-18T00:49:38;1.60;;;1.50;;
23376;SDS011;14353;46.070;13.222;2022-12-18T00:52:06;1.98;;;1.77;;
23376;SDS011;14353;46.070;13.222;2022-12-18T00:54:32;1.70;;;1.60;;
23376;SDS011;14353;46.070;13.222;2022-12-18T00:56:57;1.75;;;1.65;;
23376;SDS011;14353;46.070;13.222;2022-12-18T00:59:26;1.70;;;1.60;;
23376;SDS011;14353;46.070;13.222;2022-12-18T01:01:52;1.70;;;1.60;;
23376;SDS011;14353;46.070;13.222;2022-12-18T01:04:33;1.95;;;1.73;;
23376;SDS011;14353;46.070;13.222;2022-12-18T01:07:02;1.80;;;1.60;;
23376;SDS011;14353;46.070;13.222;2022-12-18T01:09:27;1.92;;;1.73;;
23376;SDS011;14353;46.070;13.222;2022-12-18T01:11:59;2.20;;;2.00;;
23376;SDS011;14353;46.070;13.222;2022-12-18T01:14:28;1.88;;;1.65;;
23376;SDS011;14353;46.070;13.222;2022-12-18T01:16:58;2.67;;;1.98;;
23376;SDS011;14353;46.070;13.222;2022-12-18T01:19:36;1.98;;;1.83;;
23376;SDS011;14353;46.070;13.222;2022-12-18T01:22:01;2.00;;;1.80;;
23376;SDS011;14353;46.070;13.222;2022-12-18T01:24:33;2.28;;;1.85;;
23376;SDS011;14353;46.070;13.222;2022-12-18T01:27:02;2.00;;;1.85;;
23376;SDS011;14353;46.070;13.222;2022-12-18T01:29:28;1.90;;;1.70;;
23376;SDS011;14353;46.070;13.222;2022-12-18T01:31:57;1.80;;;1.70;;
23376;SDS011;14353;46.070;13.222;2022-12-18T01:34:23;1.85;;;1.67;;
23376;SDS011;14353;46.070;13.222;2022-12-18T01:36:52;1.90;;;1.58;;
23376;SDS011;14353;46.070;13.222;2022-12-18T01:39:21;2.13;;;1.92;;
23376;SDS011;14353;46.070;13.222;2022-12-18T01:41:46;2.00;;;1.80;;
23376;SDS011;14353;46.070;13.222;2022-12-18T01:47:30;2.00;;;1.88;;
23376;SDS011;14353;46.070;13.222;2022-12-18T01:49:57;2.30;;;1.90;;
23376;SDS011;14353;46.070;13.222;2022-12-18T01:52:27;1.77;;;1.67;;
23376;SDS011;14353;46.070;13.222;2022-12-18T01:54:57;2.13;;;1.70;;
23376;SDS011;14353;46.070;13.222;2022-12-18T01:57:28;1.67;;;1.58;;
23376;SDS011;14353;46.070;13.222;2022-12-18T01:59:55;1.90;;;1.80;;
23376;SDS011;14353;46.070;13.222;2022-12-18T02:02:31;1.73;;;1.60;;
23376;SDS011;14353;46.070;13.222;2022-12-18T02:04:57;2.00;;;1.60;;
23376;SDS011;14353;46.070;13.222;2022-12-18T02:16:10;2.00;;;1.80;;
23376;SDS011;14353;46.070;13.222;2022-12-18T02:18:54;2.13;;;1.75;;
23376;SDS011;14353;46.070;13.222;2022-12-18T02:21:46;2.05;;;1.85;;
23376;SDS011;14353;46.070;13.222;2022-12-18T02:27:10;2.70;;;2.20;;
23376;SDS011;14353;46.070;13.222;2022-12-18T02:32:02;2.00;;;1.85;;
23376;SDS011;14353;46.070;13.222;2022-12-18T02:34:33;1.92;;;1.70;;
23376;SDS011;14353;46.070;13.222;2022-12-18T02:37:04;1.80;;;1.60;;
23376;SDS011;14353;46.070;13.222;2022-12-18T02:39:34;1.90;;;1.73;;
23376;SDS011;14353;46.070;13.222;2022-12-18T02:42:04;2.42;;;1.98;;
23376;SDS011;14353;46.070;13.222;2022-12-18T02:44:46;1.85;;;1.65;;
23376;SDS011;14353;46.070;13.222;2022-12-18T02:47:15;2.20;;;2.00;;
23376;SDS011;14353;46.070;13.222;2022-12-18T03:00:14;1.98;;;1.80;;
23376;SDS011;14353;46.070;13.222;2022-12-18T03:02:53;2.17;;;1.98;;
23376;SDS011;14353;46.070;13.222;2022-12-18T03:05:44;2.15;;;1.95;;
23376;SDS011;14353;46.070;13.222;2022-12-18T03:11:12;2.38;;;2.08;;
23376;SDS011;14353;46.070;13.222;2022-12-18T03:16:10;2.10;;;1.90;;
23376;SDS011;14353;46.070;13.222;2022-12-18T03:18:54;2.33;;;2.13;;
23376;SDS011;14353;46.070;13.222;2022-12-18T03:21:39;2.22;;;1.92;;
23376;SDS011;14353;46.070;13.222;2022-12-18T03:24:08;2.25;;;1.90;;
23376;SDS011;14353;46.070;13.222;2022-12-18T03:26:36;1.95;;;1.77;;
23376;SDS011;14353;46.070;13.222;2022-12-18T03:29:18;2.30;;;2.10;;
23376;SDS011;14353;46.070;13.222;2022-12-18T03:32:13;2.20;;;2.00;;
23376;SDS011;14353;46.070;13.222;2022-12-18T03:34:46;2.00;;;1.80;;
23376;SDS011;14353;46.070;13.222;2022-12-18T03:37:15;2.08;;;1.88;;
23376;SDS011;14353;46.070;13.222;2022-12-18T03:39:44;2.00;;;1.80;;
23376;SDS011;14353;46.070;13.222;2022-12-18T03:51:09;1.98;;;1.77;;
23376;SDS011;14353;46.070;13.222;2022-12-18T03:56:17;2.20;;;2.00;;
23376;SDS011;14353;46.070;13.222;2022-12-18T03:58:45;2.25;;;2.05;;
23376;SDS011;14353;46.070;13.222;2022-12-18T04:01:30;2.40;;;2.20;;
23376;SDS011;14353;46.070;13.222;2022-12-18T04:04:02;2.33;;;2.10;;
23376;SDS011;14353;46.070;13.222;2022-12-18T04:06:36;2.28;;;2.08;;
23376;SDS011;14353;46.070;13.222;2022-12-18T04:09:03;2.22;;;2.00;;
23376;SDS011;14353;46.070;13.222;2022-12-18T04:11:30;2.10;;;1.90;;
23376;SDS011;14353;46.070;13.222;2022-12-18T04:13:56;2.15;;;1.95;;
23376;SDS011;14353;46.070;13.222;2022-12-18T04:16:23;2.10;;;1.90;;
23376;SDS011;14353;46.070;13.222;2022-12-18T04:18:55;2.20;;;2.00;;
23376;SDS011;14353;46.070;13.222;2022-12-18T04:21:21;2.22;;;2.03;;
23376;SDS011;14353;46.070;13.222;2022-12-18T04:23:49;2.13;;;1.85;;
23376;SDS011;14353;46.070;13.222;2022-12-18T04:26:18;2.20;;;2.00;;
23376;SDS011;14353;46.070;13.222;2022-12-18T04:28:46;2.10;;;1.90;;
23376;SDS011;14353;46.070;13.222;2022-12-18T04:31:21;2.20;;;2.00;;
23376;SDS011;14353;46.070;13.222;2022-12-18T04:33:53;2.20;;;2.00;;
23376;SDS011;14353;46.070;13.222;2022-12-18T04:36:19;2.25;;;1.85;;
23376;SDS011;14353;46.070;13.222;2022-12-18T04:38:45;2.40;;;2.20;;
23376;SDS011;14353;46.070;13.222;2022-12-18T04:41:14;2.25;;;1.80;;
23376;SDS011;14353;46.070;13.222;2022-12-18T04:43:45;2.17;;;1.98;;
23376;SDS011;14353;46.070;13.222;2022-12-18T04:46:11;2.28;;;1.98;;
23376;SDS011;14353;46.070;13.222;2022-12-18T04:48:44;2.45;;;2.25;;
23376;SDS011;14353;46.070;13.222;2022-12-18T04:51:11;2.10;;;1.90;;
23376;SDS011;14353;46.070;13.222;2022-12-18T04:53:43;2.33;;;2.13;;
23376;SDS011;14353;46.070;13.222;2022-12-18T04:56:21;2.38;;;2.17;;
23376;SDS011;14353;46.070;13.222;2022-12-18T04:58:50;2.10;;;1.90;;
23376;SDS011;14353;46.070;13.222;2022-12-18T05:01:16;2.38;;;2.17;;
23376;SDS011;14353;46.070;13.222;2022-12-18T05:03:54;2.47;;;2.17;;
23376;SDS011;14353;46.070;13.222;2022-12-18T05:06:22;2.20;;;2.00;;
23376;SDS011;14353;46.070;13.222;2022-12-18T05:08:48;2.22;;;2.03;;
23376;SDS011;14353;46.070;13.222;2022-12-18T05:11:20;2.40;;;2.20;;
23376;SDS011;14353;46.070;13.222;2022-12-18T05:13:48;2.38;;;2.10;;
23376;SDS011;14353;46.070;13.222;2022-12-18T05:16:14;2.40;;;2.17;;
23376;SDS011;14353;46.070;13.222;2022-12-18T05:18:45;2.30;;;2.10;;
23376;SDS011;14353;46.070;13.222;2022-12-18T05:21:11;2.40;;;2.20;;
23376;SDS011;14353;46.070;13.222;2022-12-18T05:23:37;2.03;;;1.90;;
23376;SDS011;14353;46.070;13.222;2022-12-18T05:26:06;2.53;;;2.28;;
23376;SDS011;14353;46.070;13.222;2022-12-18T05:28:33;2.45;;;2.17;;
23376;SDS011;14353;46.070;13.222;2022-12-18T05:31:02;2.35;;;2.10;;
23376;SDS011;14353;46.070;13.222;2022-12-18T05:33:34;2.10;;;1.90;;
23376;SDS011;14353;46.070;13.222;2022-12-18T05:36:02;2.00;;;1.80;;
23376;SDS011;14353;46.070;13.222;2022-12-18T05:38:33;2.40;;;2.20;;
23376;SDS011;14353;46.070;13.222;2022-12-18T05:41:00;2.33;;;2.13;;
23376;SDS011;14353;46.070;13.222;2022-12-18T05:43:27;2.30;;;2.10;;
23376;SDS011;14353;46.070;13.222;2022-12-18T05:45:56;2.40;;;2.20;;
23376;SDS011;14353;46.070;13.222;2022-12-18T05:48:24;2.25;;;2.05;;
23376;SDS011;14353;46.070;13.222;2022-12-18T05:50:50;2.35;;;2.15;;
23376;SDS011;14353;46.070;13.222;2022-12-18T05:53:18;2.10;;;1.90;;
23376;SDS011;14353;46.070;13.222;2022-12-18T05:56:05;2.40;;;2.20;;
23376;SDS011;14353;46.070;13.222;2022-12-18T05:59:03;2.67;;;2.30;;
23376;SDS011;14353;46.070;13.222;2022-12-18T06:01:27;2.17;;;1.98;;
23376;SDS011;14353;46.070;13.222;2022-12-18T06:03:56;2.65;;;2.40;;
23376;SDS011;14353;46.070;13.222;2022-12-18T06:06:23;2.15;;;1.95;;
23376;SDS011;14353;46.070;13.222;2022-12-18T06:08:51;2.45;;;2.10;;
23376;SDS011;14353;46.070;13.222;2022-12-18T06:11:20;2.35;;;2.15;;
23376;SDS011;14353;46.070;13.222;2022-12-18T06:13:51;2.20;;;2.00;;
23376;SDS011;14353;46.070;13.222;2022-12-18T06:16:21;2.40;;;2.20;;
23376;SDS011;14353;46.070;13.222;2022-12-18T06:18:49;2.42;;;2.22;;
23376;SDS011;14353;46.070;13.222;2022-12-18T06:21:15;2.67;;;2.28;;
23376;SDS011;14353;46.070;13.222;2022-12-18T06:23:41;2.30;;;2.10;;
23376;SDS011;14353;46.070;13.222;2022-12-18T06:26:10;2.30;;;2.10;;
23376;SDS011;14353;46.070;13.222;2022-12-18T06:28:37;2.55;;;2.35;;
23376;SDS011;14353;46.070;13.222;2022-12-18T06:31:03;2.30;;;2.10;;
23376;SDS011;14353;46.070;13.222;2022-12-18T06:33:30;2.50;;;2.05;;
23376;SDS011;14353;46.070;13.222;2022-12-18T06:36:03;2.50;;;2.30;;
23376;SDS011;14353;46.070;13.222;2022-12-18T06:38:37;2.28;;;2.08;;
23376;SDS011;14353;46.070;13.222;2022-12-18T06:41:22;2.35;;;2.15;;
23376;SDS011;14353;46.070;13.222;2022-12-18T06:43:48;2.30;;;2.10;;
23376;SDS011;14353;46.070;13.222;2022-12-18T06:46:20;2.30;;;2.10;;
23376;SDS011;14353;46.070;13.222;2022-12-18T06:48:46;2.20;;;2.00;;
23376;SDS011;14353;46.070;13.222;2022-12-18T06:51:20;2.30;;;2.10;;
23376;SDS011;14353;46.070;13.222;2022-12-18T06:53:53;2.40;;;2.20;;
23376;SDS011;14353;46.070;13.222;2022-12-18T06:56:22;2.30;;;2.10;;
23376;SDS011;14353;46.070;13.222;2022-12-18T06:58:51;2.35;;;2.15;;
23376;SDS011;14353;46.070;13.222;2022-12-18T07:01:17;2.42;;;2.22;;
23376;SDS011;14353;46.070;13.222;2022-12-18T07:03:42;2.50;;;2.30;;
23376;SDS011;14353;46.070;13.222;2022-12-18T07:06:15;2.28;;;2.08;;
23376;SDS011;14353;46.070;13.222;2022-12-18T07:08:48;2.30;;;2.10;;
23376;SDS011;14353;46.070;13.222;2022-12-18T07:11:16;2.40;;;2.10;;
23376;SDS011;14353;46.070;13.222;2022-12-18T07:13:45;2.30;;;2.10;;
23376;SDS011;14353;46.070;13.222;2022-12-18T07:16:15;2.95;;;2.45;;
23376;SDS011;14353;46.070;13.222;2022-12-18T07:18:49;2.33;;;2.13;;
23376;SDS011;14353;46.070;13.222;2022-12-18T07:21:28;2.60;;;2.40;;
23376;SDS011;14353;46.070;13.222;2022-12-18T07:23:53;2.38;;;2.17;;
23376;SDS011;14353;46.070;13.222;2022-12-18T07:26:20;2.47;;;2.28;;
23376;SDS011;14353;46.070;13.222;2022-12-18T07:28:49;2.95;;;2.45;;
23376;SDS011;14353;46.070;13.222;2022-12-18T07:31:19;2.58;;;2.30;;
23376;SDS011;14353;46.070;13.222;2022-12-18T07:33:46;2.60;;;2.40;;
23376;SDS011;14353;46.070;13.222;2022-12-18T07:36:13;2.42;;;2.20;;
23376;SDS011;14353;46.070;13.222;2022-12-18T07:38:40;2.47;;;2.28;;
23376;SDS011;14353;46.070;13.222;2022-12-18T07:41:10;2.45;;;2.20;;
23376;SDS011;14353;46.070;13.222;2022-12-18T07:43:37;2.58;;;2.30;;
23376;SDS011;14353;46.070;13.222;2022-12-18T07:46:04;2.50;;;2.30;;
23376;SDS011;14353;46.070;13.222;2022-12-18T07:48:30;2.50;;;2.30;;
23376;SDS011;14353;46.070;13.222;2022-12-18T07:51:00;2.55;;;2.30;;
23376;SDS011;14353;46.070;13.222;2022-12-18T07:53:33;2.23;;;2.03;;
23376;SDS011;14353;46.070;13.222;2022-12-18T07:56:06;2.30;;;2.10;;
23376;SDS011;14353;46.070;13.222;2022-12-18T07:58:36;2.45;;;2.25;;
23376;SDS011;14353;46.070;13.222;2022-12-18T08:01:09;2.60;;;2.40;;
23376;SDS011;14353;46.070;13.222;2022-12-18T08:06:03;2.78;;;2.40;;
23376;SDS011;14353;46.070;13.222;2022-12-18T08:08:30;2.70;;;2.40;;
23376;SDS011;14353;46.070;13.222;2022-12-18T08:10:58;2.50;;;2.30;;
23376;SDS011;14353;46.070;13.222;2022-12-18T08:13:24;2.80;;;2.50;;
23376;SDS011;14353;46.070;13.222;2022-12-18T08:18:49;2.90;;;2.40;;
23376;SDS011;14353;46.070;13.222;2022-12-18T08:21:20;2.35;;;2.15;;
23376;SDS011;14353;46.070;13.222;2022-12-18T08:23:57;2.42;;;2.22;;
23376;SDS011;14353;46.070;13.222;2022-12-18T08:26:25;2.53;;;2.33;;
23376;SDS011;14353;46.070;13.222;2022-12-18T08:28:54;3.03;;;2.72;;
23376;SDS011;14353;46.070;13.222;2022-12-18T08:31:21;2.75;;;2.38;;
23376;SDS011;14353;46.070;13.222;2022-12-18T08:33:51;2.28;;;2.08;;
23376;SDS011;14353;46.070;13.222;2022-12-18T08:36:20;2.60;;;2.40;;
23376;SDS011;14353;46.070;13.222;2022-12-18T08:38:46;2.67;;;2.47;;
23376;SDS011;14353;46.070;13.222;2022-12-18T08:41:13;2.47;;;2.25;;
23376;SDS011;14353;46.070;13.222;2022-12-18T08:43:40;2.35;;;2.15;;
23376;SDS011;14353;46.070;13.222;2022-12-18T08:46:26;2.40;;;2.20;;
23376;SDS011;14353;46.070;13.222;2022-12-18T08:48:56;2.58;;;2.38;;
23376;SDS011;14353;46.070;13.222;2022-12-18T08:51:22;2.47;;;2.28;;
23376;SDS011;14353;46.070;13.222;2022-12-18T08:53:50;2.53;;;2.33;;
23376;SDS011;14353;46.070;13.222;2022-12-18T08:56:26;2.75;;;2.55;;
23376;SDS011;14353;46.070;13.222;2022-12-18T08:58:57;2.50;;;2.30;;
23376;SDS011;14353;46.070;13.222;2022-12-18T09:01:30;2.80;;;2.50;;
23376;SDS011;14353;46.070;13.222;2022-12-18T09:03:58;2.60;;;2.40;;
23376;SDS011;14353;46.070;13.222;2022-12-18T09:06:23;2.55;;;2.35;;
23376;SDS011;14353;46.070;13.222;2022-12-18T09:08:50;2.70;;;2.50;;
23376;SDS011;14353;46.070;13.222;2022-12-18T09:11:20;2.60;;;2.40;;
23376;SDS011;14353;46.070;13.222;2022-12-18T09:13:48;2.70;;;2.47;;
23376;SDS011;14353;46.070;13.222;2022-12-18T09:16:18;2.90;;;2.60;;
23376;SDS011;14353;46.070;13.222;2022-12-18T09:18:44;2.65;;;2.45;;
23376;SDS011;14353;46.070;13.222;2022-12-18T09:21:20;2.65;;;2.35;;
23376;SDS011;14353;46.070;13.222;2022-12-18T09:23:55;2.60;;;2.40;;
23376;SDS011;14353;46.070;13.222;2022-12-18T09:26:24;2.65;;;2.45;;
23376;SDS011;14353;46.070;13.222;2022-12-18T09:28:50;2.80;;;2.55;;
23376;SDS011;14353;46.070;13.222;2022-12-18T09:31:17;3.03;;;2.47;;
23376;SDS011;14353;46.070;13.222;2022-12-18T09:33:45;2.53;;;2.33;;
23376;SDS011;14353;46.070;13.222;2022-12-18T09:36:12;2.90;;;2.60;;
23376;SDS011;14353;46.070;13.222;2022-12-18T09:38:40;2.83;;;2.60;;
23376;SDS011;14353;46.070;13.222;2022-12-18T09:44:39;2.80;;;2.47;;
23376;SDS011;14353;46.070;13.222;2022-12-18T09:47:13;2.60;;;2.40;;
23376;SDS011;14353;46.070;13.222;2022-12-18T09:50:03;2.88;;;2.58;;
23376;SDS011;14353;46.070;13.222;2022-12-18T09:52:50;2.85;;;2.42;;
23376;SDS011;14353;46.070;13.222;2022-12-18T09:55:28;2.88;;;2.58;;
23376;SDS011;14353;46.070;13.222;2022-12-18T09:58:00;2.70;;;2.50;;
23376;SDS011;14353;46.070;13.222;2022-12-18T10:00:52;3.00;;;2.70;;
23376;SDS011;14353;46.070;13.222;2022-12-18T10:03:29;2.88;;;2.53;;
23376;SDS011;14353;46.070;13.222;2022-12-18T10:22:55;2.65;;;2.45;;
23376;SDS011;14353;46.070;13.222;2022-12-18T10:28:14;2.80;;;2.58;;
23376;SDS011;14353;46.070;13.222;2022-12-18T10:30:41;3.05;;;2.70;;
23376;SDS011;14353;46.070;13.222;2022-12-18T10:33:19;2.90;;;2.60;;
23376;SDS011;14353;46.070;13.222;2022-12-18T10:35:48;2.75;;;2.45;;
23376;SDS011;14353;46.070;13.222;2022-12-18T10:40:50;2.58;;;2.38;;
23376;SDS011;14353;46.070;13.222;2022-12-18T10:46:35;2.92;;;2.63;;
23376;SDS011;14353;46.070;13.222;2022-12-18T10:49:01;2.50;;;2.30;;
23376;SDS011;14353;46.070;13.222;2022-12-18T10:51:37;2.70;;;2.50;;
23376;SDS011;14353;46.070;13.222;2022-12-18T10:54:28;2.90;;;2.50;;
23376;SDS011;14353;46.070;13.222;2022-12-18T10:57:13;2.83;;;2.58;;
23376;SDS011;14353;46.070;13.222;2022-12-18T10:59:56;2.55;;;2.35;;
23376;SDS011;14353;46.070;13.222;2022-12-18T11:02:37;2.97;;;2.70;;
23376;SDS011;14353;46.070;13.222;2022-12-18T11:05:22;2.85;;;2.55;;
23376;SDS011;14353;46.070;13.222;2022-12-18T11:07:56;3.13;;;2.83;;
23376;SDS011;14353;46.070;13.222;2022-12-18T11:10:28;2.60;;;2.40;;
23376;SDS011;14353;46.070;13.222;2022-12-18T11:12:55;3.00;;;2.70;;
23376;SDS011;14353;46.070;13.222;2022-12-18T11:15:26;2.85;;;2.58;;
23376;SDS011;14353;46.070;13.222;2022-12-18T11:17:54;3.15;;;2.85;;
23376;SDS011;14353;46.070;13.222;2022-12-18T11:20:34;2.53;;;2.33;;
23376;SDS011;14353;46.070;13.222;2022-12-18T11:23:01;2.60;;;2.40;;
23376;SDS011;14353;46.070;13.222;2022-12-18T11:25:31;3.13;;;2.78;;
23376;SDS011;14353;46.070;13.222;2022-12-18T11:34:01;2.90;;;2.60;;
23376;SDS011;14353;46.070;13.222;2022-12-18T11:36:33;2.60;;;2.40;;
23376;SDS011;14353;46.070;13.222;2022-12-18T11:39:09;3.13;;;2.72;;
23376;SDS011;14353;46.070;13.222;2022-12-18T11:42:05;2.97;;;2.58;;
23376;SDS011;14353;46.070;13.222;2022-12-18T11:44:55;2.92;;;2.63;;
23376;SDS011;14353;46.070;13.222;2022-12-18T11:47:42;2.60;;;2.40;;
23376;SDS011;14353;46.070;13.222;2022-12-18T11:55:41;3.20;;;2.85;;
23376;SDS011;14353;46.070;13.222;2022-12-18T11:58:38;2.78;;;2.58;;
23376;SDS011;14353;46.070;13.222;2022-12-18T12:04:11;3.00;;;2.70;;
23376;SDS011;14353;46.070;13.222;2022-12-18T12:06:55;2.65;;;2.40;;
23376;SDS011;14353;46.070;13.222;2022-12-18T12:17:55;3.08;;;2.75;;
23376;SDS011;14353;46.070;13.222;2022-12-18T12:39:53;3.10;;;2.80;;
23376;SDS011;14353;46.070;13.222;2022-12-18T12:45:28;3.23;;;2.93;;
23376;SDS011;14353;46.070;13.222;2022-12-18T12:48:01;3.08;;;2.78;;
23376;SDS011;14353;46.070;13.222;2022-12-18T12:50:33;3.22;;;2.78;;
23376;SDS011;14353;46.070;13.222;2022-12-18T12:53:00;2.55;;;2.35;;
23376;SDS011;14353;46.070;13.222;2022-12-18T12:55:31;2.83;;;2.58;;
23376;SDS011;14353;46.070;13.222;2022-12-18T13:00:27;2.92;;;2.63;;
23376;SDS011;14353;46.070;13.222;2022-12-18T13:05:57;2.60;;;2.33;;
23376;SDS011;14353;46.070;13.222;2022-12-18T13:08:28;2.67;;;2.47;;
23376;SDS011;14353;46.070;13.222;2022-12-18T13:10:59;2.80;;;2.58;;
23376;SDS011;14353;46.070;13.222;2022-12-18T13:13:51;2.60;;;2.40;;
23376;SDS011;14353;46.070;13.222;2022-12-18T13:16:22;3.13;;;2.83;;
23376;SDS011;14353;46.070;13.222;2022-12-18T13:18:51;3.13;;;2.83;;
23376;SDS011;14353;46.070;13.222;2022-12-18T13:21:28;3.03;;;2.72;;
23376;SDS011;14353;46.070;13.222;2022-12-18T13:23:56;3.00;;;2.70;;
23376;SDS011;14353;46.070;13.222;2022-12-18T13:26:39;2.50;;;2.30;;
23376;SDS011;14353;46.070;13.222;2022-12-18T13:29:07;5.10;;;2.90;;
23376;SDS011;14353;46.070;13.222;2022-12-18T13:37:35;2.92;;;2.58;;
23376;SDS011;14353;46.070;13.222;2022-12-18T13:40:01;3.15;;;2.83;;
23376;SDS011;14353;46.070;13.222;2022-12-18T13:42:50;3.10;;;2.72;;
23376;SDS011;14353;46.070;13.222;2022-12-18T13:45:35;2.58;;;2.38;;
23376;SDS011;14353;46.070;13.222;2022-12-18T13:51:06;3.10;;;2.80;;
23376;SDS011;14353;46.070;13.222;2022-12-18T13:53:51;2.88;;;2.65;;
23376;SDS011;14353;46.070;13.222;2022-12-18T13:56:29;2.95;;;2.65;;
23376;SDS011;14353;46.070;13.222;2022-12-18T14:01:51;2.80;;;2.50;;
23376;SDS011;14353;46.070;13.222;2022-12-18T14:06:50;3.05;;;2.75;;
23376;SDS011;14353;46.070;13.222;2022-12-18T14:09:25;2.65;;;2.45;;
23376;SDS011;14353;46.070;13.222;2022-12-18T14:11:57;2.85;;;2.60;;
23376;SDS011;14353;46.070;13.222;2022-12-18T14:14:43;3.20;;;2.90;;
23376;SDS011;14353;46.070;13.222;2022-12-18T14:17:12;3.10;;;2.80;;
23376;SDS011;14353;46.070;13.222;2022-12-18T14:19:46;3.33;;;2.97;;
23376;SDS011;14353;46.070;13.222;2022-12-18T14:22:18;2.70;;;2.50;;
23376;SDS011;14353;46.070;13.222;2022-12-18T14:27:44;3.17;;;2.88;;
23376;SDS011;14353;46.070;13.222;2022-12-18T14:30:32;3.33;;;3.03;;
23376;SDS011;14353;46.070;13.222;2022-12-18T14:33:02;3.00;;;2.70;;
23376;SDS011;14353;46.070;13.222;2022-12-18T14:35:35;3.30;;;3.00;;
23376;SDS011;14353;46.070;13.222;2022-12-18T14:41:05;3.20;;;2.90;;
23376;SDS011;14353;46.070;13.222;2022-12-18T14:43:39;3.22;;;2.88;;
23376;SDS011;14353;46.070;13.222;2022-12-18T14:46:24;3.05;;;2.75;;
23376;SDS011;14353;46.070;13.222;2022-12-18T14:49:04;3.00;;;2.70;;
23376;SDS011;14353;46.070;13.222;2022-12-18T14:52:23;3.00;;;2.70;;
23376;SDS011;14353;46.070;13.222;2022-12-18T14:54:53;3.20;;;2.90;;
23376;SDS011;14353;46.070;13.222;2022-12-18T14:57:25;3.30;;;3.00;;
23376;SDS011;14353;46.070;13.222;2022-12-18T15:00:07;3.23;;;2.90;;
23376;SDS011;14353;46.070;13.222;2022-12-18T15:02:50;3.30;;;3.00;;
23376;SDS011;14353;46.070;13.222;2022-12-18T15:05:24;3.10;;;2.78;;
23376;SDS011;14353;46.070;13.222;2022-12-18T15:07:53;3.28;;;2.97;;
23376;SDS011;14353;46.070;13.222;2022-12-18T15:10:24;3.20;;;2.90;;
23376;SDS011;14353;46.070;13.222;2022-12-18T15:18:12;3.72;;;3.30;;
23376;SDS011;14353;46.070;13.222;2022-12-18T15:20:47;3.20;;;2.90;;
23376;SDS011;14353;46.070;13.222;2022-12-18T15:23:52;3.20;;;2.90;;
23376;SDS011;14353;46.070;13.222;2022-12-18T15:26:21;3.22;;;2.92;;
23376;SDS011;14353;46.070;13.222;2022-12-18T15:31:24;3.17;;;2.88;;
23376;SDS011;14353;46.070;13.222;2022-12-18T15:36:22;3.25;;;2.95;;
23376;SDS011;14353;46.070;13.222;2022-12-18T15:38:55;3.42;;;3.13;;
23376;SDS011;14353;46.070;13.222;2022-12-18T15:41:22;3.33;;;2.95;;
23376;SDS011;14353;46.070;13.222;2022-12-18T15:43:52;3.20;;;2.90;;
23376;SDS011;14353;46.070;13.222;2022-12-18T15:46:40;3.58;;;3.22;;
23376;SDS011;14353;46.070;13.222;2022-12-18T15:49:08;3.53;;;3.22;;
23376;SDS011;14353;46.070;13.222;2022-12-18T15:51:35;3.30;;;3.00;;
23376;SDS011;14353;46.070;13.222;2022-12-18T15:54:02;3.70;;;3.40;;
23376;SDS011;14353;46.070;13.222;2022-12-18T15:56:34;3.22;;;2.92;;
23376;SDS011;14353;46.070;13.222;2022-12-18T15:59:19;3.40;;;3.10;;
23376;SDS011;14353;46.070;13.222;2022-12-18T16:01:47;3.60;;;3.30;;
23376;SDS011;14353;46.070;13.222;2022-12-18T16:04:15;3.40;;;3.05;;
23376;SDS011;14353;46.070;13.222;2022-12-18T16:06:45;3.65;;;3.28;;
23376;SDS011;14353;46.070;13.222;2022-12-18T16:09:14;4.13;;;3.72;;
23376;SDS011;14353;46.070;13.222;2022-12-18T16:11:41;4.13;;;3.72;;
23376;SDS011;14353;46.070;13.222;2022-12-18T16:14:20;4.00;;;3.58;;
23376;SDS011;14353;46.070;13.222;2022-12-18T16:16:54;3.47;;;3.13;;
23376;SDS011;14353;46.070;13.222;2022-12-18T16:19:22;4.00;;;3.60;;
23376;SDS011;14353;46.070;13.222;2022-12-18T16:21:49;4.25;;;3.60;;
23376;SDS011;14353;46.070;13.222;2022-12-18T16:24:30;3.40;;;3.10;;
23376;SDS011;14353;46.070;13.222;2022-12-18T16:27:01;4.00;;;3.47;;
23376;SDS011;14353;46.070;13.222;2022-12-18T16:29:35;3.95;;;3.47;;
23376;SDS011;14353;46.070;13.222;2022-12-18T16:32:01;4.05;;;3.65;;
23376;SDS011;14353;46.070;13.222;2022-12-18T16:34:28;3.47;;;3.03;;
23376;SDS011;14353;46.070;13.222;2022-12-18T16:36:56;3.70;;;3.38;;
23376;SDS011;14353;46.070;13.222;2022-12-18T16:39:23;4.07;;;3.67;;
23376;SDS011;14353;46.070;13.222;2022-12-18T16:41:52;3.58;;;3.28;;
23376;SDS011;14353;46.070;13.222;2022-12-18T16:44:21;3.70;;;3.38;;
23376;SDS011;14353;46.070;13.222;2022-12-18T16:46:52;4.18;;;3.67;;
23376;SDS011;14353;46.070;13.222;2022-12-18T16:49:35;4.43;;;3.70;;
23376;SDS011;14353;46.070;13.222;2022-12-18T16:52:02;4.07;;;3.67;;
23376;SDS011;14353;46.070;13.222;2022-12-18T16:54:34;3.90;;;3.47;;
23376;SDS011;14353;46.070;13.222;2022-12-18T16:57:00;4.03;;;3.50;;
23376;SDS011;14353;46.070;13.222;2022-12-18T16:59:27;3.85;;;3.50;;
23376;SDS011;14353;46.070;13.222;2022-12-18T17:02:05;3.88;;;3.30;;
23376;SDS011;14353;46.070;13.222;2022-12-18T17:04:36;4.10;;;3.70;;
23376;SDS011;14353;46.070;13.222;2022-12-18T17:07:01;3.78;;;3.30;;
23376;SDS011;14353;46.070;13.222;2022-12-18T17:09:28;3.95;;;3.40;;
23376;SDS011;14353;46.070;13.222;2022-12-18T17:11:54;3.95;;;3.40;;
23376;SDS011;14353;46.070;13.222;2022-12-18T17:14:24;3.67;;;3.22;;
23376;SDS011;14353;46.070;13.222;2022-12-18T17:17:17;3.58;;;3.25;;
23376;SDS011;14353;46.070;13.222;2022-12-18T17:19:43;3.90;;;3.50;;
23376;SDS011;14353;46.070;13.222;2022-12-18T17:22:18;4.30;;;3.47;;
23376;SDS011;14353;46.070;13.222;2022-12-18T17:24:47;3.90;;;3.50;;
23376;SDS011;14353;46.070;13.222;2022-12-18T17:27:13;3.60;;;3.30;;
23376;SDS011;14353;46.070;13.222;2022-12-18T17:29:42;3.72;;;3.40;;
23376;SDS011;14353;46.070;13.222;2022-12-18T17:32:08;4.13;;;3.67;;
23376;SDS011;14353;46.070;13.222;2022-12-18T17:34:37;4.35;;;3.70;;
23376;SDS011;14353;46.070;13.222;2022-12-18T17:37:08;3.83;;;3.42;;
23376;SDS011;14353;46.070;13.222;2022-12-18T17:39:37;4.03;;;3.63;;